Time;durP1;ratioP1;P1;durP2;ratioP2;P2;SDS_P1;SDS_P2;PMS_P1;PMS_P2;Temp;Humidity;BMP_temperature;BMP_pressure;BME280_temperature;BME280_humidity;BME280_pressure;Samples;Min_cycle;Max_cycle;Signal;HPM_P1;HPM_P2
2023/06/29 00:00:58;;;;;;;8.20;4.78;;;;;;;28.54;46.84;98632.72;2060713;28;20065;-50
2023/06/29 00:01:59;;;;;;;6.65;4.18;;;;;;;28.54;46.52;98640.91;2063696;28;20045;-48
2023/06/29 00:03:01;;;;;;;4.72;4.00;;;;;;;28.52;46.39;98638.44;2062659;28;20053;-48
2023/06/29 00:04:02;;;;;;;6.28;4.70;;;;;;;28.51;46.49;98634.88;2062680;28;20137;-49
2023/06/29 00:05:05;;;;;;;7.18;4.50;;;;;;;28.52;46.24;98638.44;2062491;28;20074;-50
2023/06/29 00:06:07;;;;;;;7.40;4.55;;;;;;;28.51;46.53;98640.34;2061551;28;20114;-49
2023/06/29 00:07:09;;;;;;;7.10;4.20;;;;;;;28.50;46.70;98637.88;2061062;28;20050;-52
2023/06/29 00:08:11;;;;;;;5.85;3.95;;;;;;;28.52;46.71;98643.88;2063743;28;20251;-51
2023/06/29 00:09:13;;;;;;;5.15;3.92;;;;;;;28.54;46.62;98647.19;2062371;28;20052;-46
2023/06/29 00:10:14;;;;;;;5.70;4.68;;;;;;;28.52;46.53;98646.63;2059759;28;20046;-53
2023/06/29 00:11:16;;;;;;;5.40;3.65;;;;;;;28.52;46.75;98641.97;2062734;28;20057;-48
2023/06/29 00:12:17;;;;;;;6.80;4.22;;;;;;;28.52;46.68;98644.69;2059901;28;20046;-49
2023/06/29 00:13:20;;;;;;;6.28;4.32;;;;;;;28.52;46.67;98643.88;2052329;28;20149;-50
2023/06/29 00:14:20;;;;;;;5.28;4.78;;;;;;;28.52;46.64;98638.44;2059886;28;20195;-48
2023/06/29 00:15:22;;;;;;;4.80;3.83;;;;;;;28.52;46.81;98630.25;2061963;28;20156;-52
2023/06/29 00:16:23;;;;;;;5.60;4.55;;;;;;;28.51;47.07;98645.81;2062815;28;20049;-50
2023/06/29 00:17:25;;;;;;;3.90;3.50;;;;;;;28.50;46.83;98641.44;2064469;28;20046;-50
2023/06/29 00:18:28;;;;;;;3.88;3.47;;;;;;;28.52;46.53;98635.69;2061204;28;20157;-49
2023/06/29 00:19:30;;;;;;;7.00;4.45;;;;;;;28.52;46.85;98641.16;2063443;28;20053;-47
2023/06/29 00:20:30;;;;;;;5.35;4.35;;;;;;;28.50;47.04;98637.88;2064106;28;20575;-49
2023/06/29 00:21:34;;;;;;;4.05;3.58;;;;;;;28.54;46.83;98630.81;2061649;28;20057;-49
2023/06/29 00:22:35;;;;;;;4.80;4.13;;;;;;;28.53;47.01;98631.91;2059983;28;20054;-53
2023/06/29 00:23:37;;;;;;;8.07;4.18;;;;;;;28.51;46.89;98629.44;2064253;28;20137;-46
2023/06/29 00:24:42;;;;;;;5.82;4.03;;;;;;;28.52;47.06;98627.50;2061119;28;20050;-52
2023/06/29 00:25:44;;;;;;;4.35;3.85;;;;;;;28.50;46.71;98632.41;2059885;28;20074;-49
2023/06/29 00:26:45;;;;;;;5.97;3.70;;;;;;;28.49;46.64;98622.59;2061577;28;20798;-50
2023/06/29 00:27:47;;;;;;;4.93;3.58;;;;;;;28.49;47.04;98620.69;2063215;28;20100;-47
2023/06/29 00:28:48;;;;;;;5.72;4.18;;;;;;;28.48;46.88;98623.69;2062065;28;20169;-51
2023/06/29 00:29:50;;;;;;;9.13;3.83;;;;;;;28.49;46.82;98625.31;2061549;28;20086;-46
2023/06/29 00:30:51;;;;;;;12.75;5.05;;;;;;;28.49;47.07;98631.59;2061186;28;20057;-46
2023/06/29 00:31:52;;;;;;;5.53;4.43;;;;;;;28.49;46.92;98636.25;2062136;28;20046;-49
2023/06/29 00:32:53;;;;;;;7.97;5.07;;;;;;;28.50;46.91;98632.41;2062672;28;20166;-49
2023/06/29 00:33:55;;;;;;;5.22;4.35;;;;;;;28.48;46.81;98623.69;2064734;28;20081;-50
2023/06/29 00:34:56;;;;;;;4.45;3.22;;;;;;;28.50;46.93;98633.25;2062108;28;20043;-50
2023/06/29 00:35:58;;;;;;;8.63;4.20;;;;;;;28.50;46.67;98635.13;2061878;28;20412;-46
2023/06/29 00:37:00;;;;;;;7.00;4.03;;;;;;;28.54;46.90;98627.25;2063044;28;20041;-51
2023/06/29 00:38:02;;;;;;;5.97;4.05;;;;;;;28.47;47.17;98632.94;2061009;28;20409;-47
2023/06/29 00:39:03;;;;;;;6.40;4.40;;;;;;;28.50;47.11;98626.97;2060866;28;20081;-48
2023/06/29 00:40:06;;;;;;;5.00;4.30;;;;;;;28.47;46.98;98631.06;2062966;28;20045;-53
2023/06/29 00:41:07;;;;;;;5.63;3.63;;;;;;;28.49;46.82;98636.25;2058038;28;20046;-48
2023/06/29 00:42:09;;;;;;;4.82;3.85;;;;;;;28.47;47.06;98628.34;2060491;28;20141;-48
2023/06/29 00:43:10;;;;;;;5.70;3.97;;;;;;;28.49;47.30;98633.50;2060734;28;20061;-47
2023/06/29 00:44:12;;;;;;;5.70;3.60;;;;;;;28.50;47.21;98626.97;2059270;28;20084;-47
2023/06/29 00:45:13;;;;;;;5.43;4.05;;;;;;;28.49;47.26;98625.31;2061266;28;20046;-52
2023/06/29 00:46:19;;;;;;;6.10;4.10;;;;;;;28.49;47.11;98623.41;2064440;28;20568;-46
2023/06/29 00:47:21;;;;;;;8.10;4.40;;;;;;;28.49;47.05;98633.50;2064376;28;20050;-46
2023/06/29 00:48:23;;;;;;;5.15;3.90;;;;;;;28.48;47.34;98623.69;2064744;28;20176;-49
2023/06/29 00:49:24;;;;;;;6.05;4.15;;;;;;;28.45;46.92;98624.25;2062993;28;20500;-47
2023/06/29 00:50:26;;;;;;;7.88;4.18;;;;;;;28.48;46.99;98629.97;2064978;28;20112;-47
2023/06/29 00:51:29;;;;;;;4.20;3.78;;;;;;;28.48;46.88;98624.50;2066488;28;20137;-46
2023/06/29 00:52:33;;;;;;;5.45;4.00;;;;;;;28.49;46.97;98619.88;2063837;28;20046;-48
2023/06/29 00:53:34;;;;;;;6.18;3.90;;;;;;;28.49;47.06;98630.78;2063427;28;20069;-48
2023/06/29 00:54:37;;;;;;;5.97;4.20;;;;;;;28.48;46.85;98632.69;2068007;28;20137;-46
2023/06/29 00:55:38;;;;;;;4.65;3.85;;;;;;;28.46;47.03;98620.41;2065029;28;20049;-47
2023/06/29 00:56:41;;;;;;;4.93;4.40;;;;;;;28.45;47.14;98629.69;2064989;28;20064;-47
2023/06/29 00:57:42;;;;;;;4.20;3.78;;;;;;;28.47;47.16;98628.34;2068296;28;20180;-48
2023/06/29 00:58:44;;;;;;;5.20;4.05;;;;;;;28.48;47.01;98623.69;2064559;28;20046;-48
2023/06/29 00:59:45;;;;;;;6.13;3.88;;;;;;;28.50;46.77;98624.22;2066276;28;20062;-46
2023/06/29 01:00:47;;;;;;;5.13;3.38;;;;;;;28.49;46.71;98626.16;2066494;28;20073;-49
2023/06/29 01:01:49;;;;;;;5.80;4.10;;;;;;;28.46;47.22;98621.22;2065589;28;20042;-48
2023/06/29 01:02:51;;;;;;;4.72;3.72;;;;;;;28.48;46.92;98631.88;2063508;28;20492;-48
2023/06/29 01:03:52;;;;;;;7.57;3.95;;;;;;;28.47;47.13;98633.81;2064407;28;20069;-48
2023/06/29 01:04:54;;;;;;;4.93;4.00;;;;;;;28.47;46.96;98631.06;2066048;28;20053;-46
2023/06/29 01:06:00;;;;;;;4.78;4.05;;;;;;;28.46;46.85;98632.13;2063249;28;20144;-49
2023/06/29 01:07:08;;;;;;;5.35;3.70;;;;;;;28.46;46.98;98629.41;2066578;28;20508;-49
2023/06/29 01:08:17;;;;;;;6.80;3.83;;;;;;;28.47;46.92;98632.94;2066045;28;20144;-48
2023/06/29 01:09:19;;;;;;;6.05;3.75;;;;;;;28.46;46.79;98632.13;2068434;28;20110;-49
2023/06/29 01:10:24;;;;;;;5.70;3.85;;;;;;;28.47;46.76;98630.22;2065277;28;20068;-48
2023/06/29 01:11:26;;;;;;;4.22;3.80;;;;;;;28.46;46.71;98629.41;2064886;28;20053;-48
2023/06/29 01:12:27;;;;;;;6.07;4.28;;;;;;;28.42;46.69;98628.31;2064509;28;20496;-49
2023/06/29 01:13:31;;;;;;;5.65;3.45;;;;;;;28.45;46.81;98630.50;2062176;28;20079;-47
2023/06/29 01:14:33;;;;;;;4.18;3.78;;;;;;;28.46;46.56;98628.59;2060575;28;20108;-46
2023/06/29 01:15:37;;;;;;;5.55;3.92;;;;;;;28.47;46.78;98627.50;2065155;28;20393;-48
2023/06/29 01:16:38;;;;;;;6.68;3.83;;;;;;;28.46;46.54;98626.69;2064391;28;20523;-47
2023/06/29 01:17:41;;;;;;;6.53;3.97;;;;;;;28.46;46.52;98625.88;2062027;28;20061;-49
2023/06/29 01:18:44;;;;;;;8.23;3.95;;;;;;;28.45;46.52;98629.69;2066159;28;20058;-46
2023/06/29 01:19:50;;;;;;;7.43;3.90;;;;;;;28.47;46.57;98632.94;2064722;28;20504;-47
2023/06/29 01:20:53;;;;;;;5.53;3.65;;;;;;;28.45;46.74;98624.25;2064319;28;20054;-46
2023/06/29 01:22:01;;;;;;;4.60;3.75;;;;;;;28.47;46.48;98622.03;2064552;28;20060;-48
2023/06/29 01:23:10;;;;;;;3.80;3.13;;;;;;;28.47;46.49;98627.50;2063305;28;20065;-49
2023/06/29 01:24:15;;;;;;;4.57;3.65;;;;;;;28.44;46.42;98628.03;2062152;28;20046;-47
2023/06/29 01:25:17;;;;;;;7.00;4.45;;;;;;;28.43;46.42;98632.69;2064020;28;20582;-47
2023/06/29 01:26:20;;;;;;;4.47;3.97;;;;;;;28.41;46.20;98632.09;2064405;28;20121;-48
2023/06/29 01:27:21;;;;;;;5.38;4.10;;;;;;;28.43;46.33;98632.69;2062705;28;20053;-48
2023/06/29 01:28:23;;;;;;;3.75;3.35;;;;;;;28.44;46.37;98628.03;2064360;28;20042;-46
2023/06/29 01:29:24;;;;;;;4.90;3.80;;;;;;;28.44;46.13;98628.03;2063196;28;20522;-46
2023/06/29 01:30:28;;;;;;;3.70;3.35;;;;;;;28.43;46.19;98629.13;2062472;28;20050;-49
2023/06/29 01:31:29;;;;;;;4.85;3.50;;;;;;;28.43;46.37;98631.88;2064350;28;20046;-49
2023/06/29 01:32:34;;;;;;;4.68;3.38;;;;;;;28.44;46.23;98625.31;2061471;28;20054;-49
2023/06/29 01:33:35;;;;;;;4.97;3.63;;;;;;;28.45;46.30;98629.69;2062695;28;20550;-48
2023/06/29 01:34:39;;;;;;;3.83;3.40;;;;;;;28.46;46.16;98620.41;2064217;28;20064;-47
2023/06/29 01:35:40;;;;;;;5.78;3.28;;;;;;;28.46;46.49;98620.41;2063630;28;20054;-49
2023/06/29 01:36:45;;;;;;;4.20;3.80;;;;;;;28.44;46.14;98614.41;2062071;28;20042;-49
2023/06/29 01:37:49;;;;;;;4.97;4.10;;;;;;;28.44;46.24;98622.59;2063410;28;20050;-47
2023/06/29 01:38:56;;;;;;;4.65;3.25;;;;;;;28.44;46.50;98625.31;2063729;28;20053;-46
2023/06/29 01:40:01;;;;;;;6.05;3.63;;;;;;;28.43;46.47;98626.41;2063959;28;20077;-48
2023/06/29 01:41:07;;;;;;;4.72;3.78;;;;;;;28.42;46.58;98620.13;2063678;28;20049;-48
2023/06/29 01:42:10;;;;;;;5.97;3.67;;;;;;;28.43;46.74;98623.69;2062626;28;20050;-48
2023/06/29 01:43:11;;;;;;;4.60;3.33;;;;;;;28.43;46.51;98631.88;2063349;28;20054;-50
2023/06/29 01:44:16;;;;;;;6.05;4.13;;;;;;;28.41;46.69;98623.91;2060582;28;20062;-55
2023/06/29 01:45:20;;;;;;;4.85;3.70;;;;;;;28.40;46.45;98621.47;2062411;28;20046;-49
2023/06/29 01:46:21;;;;;;;4.45;3.83;;;;;;;28.41;46.39;98623.91;2062404;28;20100;-47
2023/06/29 01:47:24;;;;;;;4.60;3.38;;;;;;;28.43;46.43;98616.31;2058186;28;20077;-47
2023/06/29 01:48:25;;;;;;;4.63;3.83;;;;;;;28.41;46.69;98621.19;2064713;28;20089;-50
2023/06/29 01:49:27;;;;;;;4.20;3.58;;;;;;;28.40;46.32;98621.47;2062639;28;20051;-47
2023/06/29 01:50:29;;;;;;;4.45;3.00;;;;;;;28.42;46.68;98628.31;2065766;28;20053;-50
2023/06/29 01:51:31;;;;;;;4.90;3.47;;;;;;;28.41;46.66;98621.19;2062915;28;20054;-47
2023/06/29 01:52:32;;;;;;;4.90;3.30;;;;;;;28.39;46.77;98625.25;2063680;28;20051;-47
2023/06/29 01:53:35;;;;;;;3.95;3.53;;;;;;;28.42;46.84;98624.75;2066558;28;20054;-47
2023/06/29 01:54:36;;;;;;;4.15;3.25;;;;;;;28.42;46.74;98622.03;2063539;28;20850;-48
2023/06/29 01:55:38;;;;;;;5.78;3.67;;;;;;;28.41;46.76;98623.09;2063070;28;20046;-47
2023/06/29 01:56:41;;;;;;;4.43;3.45;;;;;;;28.43;46.73;98626.41;2063269;28;20049;-49
2023/06/29 01:57:42;;;;;;;5.00;3.38;;;;;;;28.42;46.52;98627.47;2060511;28;20058;-46
2023/06/29 01:58:43;;;;;;;5.07;3.60;;;;;;;28.42;46.61;98625.59;2063354;28;20084;-46
2023/06/29 01:59:46;;;;;;;4.13;3.28;;;;;;;28.41;46.66;98620.38;2063524;28;20501;-46
2023/06/29 02:00:47;;;;;;;5.90;3.83;;;;;;;28.40;46.70;98621.47;2060335;28;20053;-49
2023/06/29 02:01:49;;;;;;;3.42;3.05;;;;;;;28.40;46.52;98624.19;2061528;28;20191;-45
2023/06/29 02:02:49;;;;;;;5.05;2.70;;;;;;;28.40;46.84;98621.47;2059186;28;20050;-48
2023/06/29 02:03:51;;;;;;;3.85;3.45;;;;;;;28.39;46.78;98617.91;2064211;28;20053;-49
2023/06/29 02:04:52;;;;;;;6.53;3.67;;;;;;;28.39;46.47;98628.84;2065632;28;20479;-46
2023/06/29 02:05:54;;;;;;;4.38;3.55;;;;;;;28.41;46.70;98623.09;2063140;28;20058;-48
2023/06/29 02:06:55;;;;;;;4.35;3.45;;;;;;;28.40;46.57;98625.00;2062041;28;20495;-48
2023/06/29 02:07:56;;;;;;;5.13;3.13;;;;;;;28.40;46.46;98619.53;2063264;28;20060;-49
2023/06/29 02:08:57;;;;;;;4.30;3.40;;;;;;;28.41;46.54;98623.09;2059412;28;20054;-46
2023/06/29 02:09:59;;;;;;;4.00;3.60;;;;;;;28.39;46.42;98617.91;2063217;28;20133;-46
2023/06/29 02:11:00;;;;;;;4.72;3.47;;;;;;;28.39;46.43;98617.91;2061329;28;20051;-48
2023/06/29 02:12:03;;;;;;;3.83;3.28;;;;;;;28.39;46.49;98617.91;2062124;28;20070;-49
2023/06/29 02:13:04;;;;;;;4.22;3.40;;;;;;;28.38;46.48;98619.00;2062631;28;20096;-51
2023/06/29 02:14:06;;;;;;;6.78;3.72;;;;;;;28.39;46.37;98623.38;2060942;28;20050;-50
2023/06/29 02:15:08;;;;;;;4.00;3.47;;;;;;;28.37;46.68;98622.00;2061548;28;20512;-45
2023/06/29 02:16:09;;;;;;;3.92;3.03;;;;;;;28.39;46.37;98625.25;2065852;28;20516;-49
2023/06/29 02:17:10;;;;;;;3.55;3.08;;;;;;;28.39;46.34;98623.38;2061157;28;20050;-49
2023/06/29 02:18:12;;;;;;;3.58;3.22;;;;;;;28.40;46.18;98626.91;2060854;28;20050;-47
2023/06/29 02:19:13;;;;;;;4.38;3.28;;;;;;;28.42;46.53;98630.22;2060352;28;20046;-48
2023/06/29 02:20:17;;;;;;;3.88;3.20;;;;;;;28.42;46.41;98630.22;2060844;28;20481;-47
2023/06/29 02:21:18;;;;;;;3.53;3.22;;;;;;;28.38;46.39;98627.16;2056377;28;20073;-46
2023/06/29 02:22:19;;;;;;;5.25;3.83;;;;;;;28.37;46.42;98622.00;2063292;28;20054;-46
2023/06/29 02:23:20;;;;;;;4.63;3.35;;;;;;;28.38;46.70;98624.44;2061208;28;20062;-47
2023/06/29 02:24:23;;;;;;;4.70;3.20;;;;;;;28.41;46.32;98631.28;2064065;28;20180;-48
2023/06/29 02:25:24;;;;;;;5.60;3.85;;;;;;;28.38;46.01;98626.34;2060716;28;20087;-47
2023/06/29 02:26:26;;;;;;;4.53;3.30;;;;;;;28.39;46.07;98625.25;2061763;28;20519;-49
2023/06/29 02:27:28;;;;;;;4.30;3.40;;;;;;;28.40;46.13;98626.91;2061574;28;20500;-51
2023/06/29 02:28:30;;;;;;;4.57;3.22;;;;;;;28.41;46.22;98623.09;2061238;28;20181;-48
2023/06/29 02:29:31;;;;;;;4.35;3.13;;;;;;;28.42;46.33;98624.75;2062645;28;20069;-48
2023/06/29 02:30:33;;;;;;;3.40;3.10;;;;;;;28.38;45.91;98623.63;2064298;28;20453;-49
2023/06/29 02:31:34;;;;;;;3.50;2.85;;;;;;;28.41;45.98;98620.38;2059751;28;20049;-48
2023/06/29 02:32:35;;;;;;;4.65;2.78;;;;;;;28.40;45.65;98622.28;2063864;28;20049;-50
2023/06/29 02:33:36;;;;;;;4.75;3.28;;;;;;;28.40;46.02;98618.72;2062653;28;20065;-46
2023/06/29 02:34:38;;;;;;;4.28;3.30;;;;;;;28.38;45.81;98619.00;2062137;28;20046;-48
2023/06/29 02:35:39;;;;;;;3.85;3.13;;;;;;;28.38;45.92;98619.00;2060460;28;20859;-49
2023/06/29 02:36:40;;;;;;;3.85;3.25;;;;;;;28.38;45.81;98619.00;2061677;28;20061;-47
2023/06/29 02:37:41;;;;;;;3.72;3.40;;;;;;;28.37;45.61;98616.53;2060265;28;20058;-51
2023/06/29 02:38:43;;;;;;;4.05;3.47;;;;;;;28.37;45.90;98616.53;2058654;28;20804;-48
2023/06/29 02:39:44;;;;;;;4.78;3.38;;;;;;;28.34;45.76;98612.44;2060824;28;20081;-48
2023/06/29 02:40:46;;;;;;;4.43;3.53;;;;;;;28.37;45.67;98616.53;2062555;28;20057;-46
2023/06/29 02:41:47;;;;;;;5.43;3.88;;;;;;;28.34;46.09;98617.09;2062743;28;20049;-48
2023/06/29 02:42:50;;;;;;;5.25;3.92;;;;;;;28.36;45.90;98615.72;2063903;28;21902;-51
2023/06/29 02:43:52;;;;;;;3.10;2.80;;;;;;;28.36;45.86;98614.88;2060336;28;20050;-50
2023/06/29 02:44:54;;;;;;;5.10;3.28;;;;;;;28.37;45.91;98611.09;2059071;28;20052;-51
2023/06/29 02:45:55;;;;;;;3.30;2.90;;;;;;;28.36;45.92;98620.34;2061413;28;21050;-49
2023/06/29 02:46:58;;;;;;;4.40;2.92;;;;;;;28.37;45.99;98622.00;2061075;28;20058;-52
2023/06/29 02:47:59;;;;;;;3.78;3.40;;;;;;;28.37;45.91;98619.28;2061341;28;20057;-48
2023/06/29 02:49:00;;;;;;;6.57;3.50;;;;;;;28.37;45.93;98622.00;2059916;28;20054;-50
2023/06/29 02:50:01;;;;;;;3.10;2.80;;;;;;;28.36;45.94;98621.19;2065584;28;20535;-49
2023/06/29 02:51:05;;;;;;;3.88;2.97;;;;;;;28.35;45.76;98619.53;2059575;28;20068;-51
2023/06/29 02:52:06;;;;;;;4.65;3.47;;;;;;;28.36;45.78;98620.34;2062999;28;20517;-48
2023/06/29 02:53:11;;;;;;;4.82;3.85;;;;;;;28.34;45.66;98617.09;2062060;28;20050;-50
2023/06/29 02:54:12;;;;;;;4.53;3.45;;;;;;;28.32;45.78;98622.78;2059817;28;20082;-52
2023/06/29 02:55:14;;;;;;;5.07;3.22;;;;;;;28.32;45.64;98609.16;2056209;28;20061;-53
2023/06/29 02:56:15;;;;;;;4.43;3.95;;;;;;;28.33;45.81;98616.25;2058810;28;20073;-49
2023/06/29 02:57:16;;;;;;;4.10;3.20;;;;;;;28.34;45.64;98611.63;2057281;28;20112;-50
2023/06/29 02:58:18;;;;;;;4.68;3.53;;;;;;;28.35;45.68;98613.25;2061062;28;20421;-48
2023/06/29 02:59:21;;;;;;;3.03;2.70;;;;;;;28.35;45.83;98618.72;2063370;28;20393;-50
2023/06/29 03:00:22;;;;;;;3.15;2.83;;;;;;;28.33;45.63;98615.44;2065232;28;20069;-51
2023/06/29 03:01:24;;;;;;;5.65;3.15;;;;;;;28.29;45.57;98613.25;2064008;28;20060;-50
2023/06/29 03:02:24;;;;;;;3.72;2.90;;;;;;;28.32;45.38;98619.25;2062660;28;20050;-50
2023/06/29 03:03:26;;;;;;;4.53;3.15;;;;;;;28.31;45.14;98614.91;2064171;28;20056;-50
2023/06/29 03:04:27;;;;;;;4.72;3.10;;;;;;;28.32;45.38;98617.34;2062818;28;20049;-53
2023/06/29 03:05:29;;;;;;;3.50;3.05;;;;;;;28.32;45.30;98616.53;2061792;28;20758;-53
2023/06/29 03:06:30;;;;;;;3.65;2.85;;;;;;;28.26;45.14;98608.31;2063080;28;20069;-49
2023/06/29 03:07:33;;;;;;;4.95;3.25;;;;;;;28.32;45.21;98608.34;2061934;28;20064;-52
2023/06/29 03:08:34;;;;;;;3.58;3.05;;;;;;;28.32;45.10;98611.88;2060719;28;20046;-51
2023/06/29 03:09:36;;;;;;;3.25;2.88;;;;;;;28.28;44.97;98616.25;2059981;28;20049;-53
2023/06/29 03:10:37;;;;;;;4.72;2.53;;;;;;;28.31;44.93;98618.44;2061053;28;22752;-52
2023/06/29 03:11:39;;;;;;;3.40;3.10;;;;;;;28.30;45.32;98611.31;2061364;28;20052;-49
2023/06/29 03:12:41;;;;;;;4.35;2.95;;;;;;;28.30;45.17;98616.78;2062685;28;20379;-48
2023/06/29 03:13:45;;;;;;;4.55;3.28;;;;;;;28.29;44.95;98621.41;2059442;28;20057;-53
2023/06/29 03:14:46;;;;;;;3.22;2.90;;;;;;;28.27;45.08;98615.41;2061145;28;20165;-50
2023/06/29 03:15:48;;;;;;;2.72;2.42;;;;;;;28.28;45.00;98614.34;2059647;28;20042;-53
2023/06/29 03:16:49;;;;;;;5.20;3.50;;;;;;;28.28;44.98;98614.34;2062879;28;20057;-52
2023/06/29 03:17:51;;;;;;;5.15;2.75;;;;;;;28.26;44.85;98613.78;2060577;28;20064;-53
2023/06/29 03:18:52;;;;;;;3.58;2.90;;;;;;;28.28;44.87;98622.53;2060562;28;20061;-52
2023/06/29 03:19:54;;;;;;;3.70;3.28;;;;;;;28.27;44.86;98618.13;2058904;28;20133;-47
2023/06/29 03:20:55;;;;;;;3.38;2.53;;;;;;;28.26;44.92;98618.41;2063019;28;20050;-47
2023/06/29 03:21:56;;;;;;;7.63;3.88;;;;;;;28.27;44.69;98617.31;2061120;28;20049;-50
2023/06/29 03:22:57;;;;;;;3.67;3.17;;;;;;;28.29;44.75;98626.06;2062669;28;20053;-50
2023/06/29 03:23:59;;;;;;;3.58;3.25;;;;;;;28.26;44.80;98619.22;2061130;28;20917;-52
2023/06/29 03:25:00;;;;;;;3.92;2.97;;;;;;;28.27;44.98;98620.88;2062272;28;20060;-49
2023/06/29 03:26:02;;;;;;;4.40;2.83;;;;;;;28.26;44.99;98619.22;2058718;28;20523;-48
2023/06/29 03:27:04;;;;;;;3.60;2.67;;;;;;;28.26;44.61;98621.97;2061501;28;20078;-49
2023/06/29 03:28:06;;;;;;;3.03;2.55;;;;;;;28.26;44.72;98619.22;2062885;28;20046;-48
2023/06/29 03:29:09;;;;;;;3.38;3.00;;;;;;;28.24;44.69;98624.13;2063847;28;20510;-48
2023/06/29 03:30:11;;;;;;;3.10;2.80;;;;;;;28.26;44.39;98623.88;2063121;28;20061;-52
2023/06/29 03:31:12;;;;;;;3.08;2.53;;;;;;;28.25;44.67;98619.50;2065106;28;20552;-47
2023/06/29 03:32:14;;;;;;;2.80;2.38;;;;;;;28.23;44.71;98622.50;2062010;28;20053;-52
2023/06/29 03:33:15;;;;;;;3.20;2.90;;;;;;;28.24;44.70;98623.31;2062982;28;20053;-51
2023/06/29 03:34:16;;;;;;;2.90;2.58;;;;;;;28.22;44.34;98615.41;2062288;28;20054;-50
2023/06/29 03:35:17;;;;;;;8.77;3.03;;;;;;;28.23;44.39;98616.22;2061307;28;20091;-49
2023/06/29 03:36:20;;;;;;;4.32;2.80;;;;;;;28.22;44.20;98620.03;2062386;28;20057;-48
2023/06/29 03:37:20;;;;;;;4.13;2.72;;;;;;;28.22;44.11;98623.59;2063333;28;20048;-50
2023/06/29 03:38:22;;;;;;;2.78;2.47;;;;;;;28.21;44.27;98619.22;2062858;28;20056;-53
2023/06/29 03:39:23;;;;;;;3.50;2.60;;;;;;;28.22;44.12;98614.56;2064388;28;20057;-47
2023/06/29 03:40:25;;;;;;;2.70;2.45;;;;;;;28.23;44.36;98618.97;2064111;28;20562;-52
2023/06/29 03:41:26;;;;;;;3.55;2.85;;;;;;;28.20;43.86;98617.59;2064374;28;20054;-50
2023/06/29 03:42:27;;;;;;;3.88;2.70;;;;;;;28.19;44.17;98620.56;2062046;28;20057;-49
2023/06/29 03:43:28;;;;;;;2.70;2.42;;;;;;;28.20;44.28;98620.31;2059862;28;20080;-53
2023/06/29 03:44:32;;;;;;;3.78;2.67;;;;;;;28.20;44.05;98616.75;2061741;28;20046;-46
2023/06/29 03:45:32;;;;;;;3.58;2.55;;;;;;;28.21;44.41;98624.66;2062813;28;20115;-51
2023/06/29 03:46:34;;;;;;;3.65;2.45;;;;;;;28.21;44.06;98612.94;2062517;28;20139;-48
2023/06/29 03:47:35;;;;;;;3.30;2.67;;;;;;;28.18;44.21;98619.75;2062882;28;20160;-46
2023/06/29 03:48:37;;;;;;;2.63;2.38;;;;;;;28.20;43.97;98620.31;2064804;28;20669;-49
2023/06/29 03:49:38;;;;;;;2.72;2.28;;;;;;;28.20;44.15;98620.31;2065160;28;20057;-48
2023/06/29 03:50:40;;;;;;;3.08;2.67;;;;;;;28.18;43.95;98619.75;2064275;28;20049;-49
2023/06/29 03:51:41;;;;;;;3.50;2.88;;;;;;;28.19;43.95;98626.81;2065181;28;20042;-49
2023/06/29 03:52:43;;;;;;;2.78;2.58;;;;;;;28.18;44.10;98627.13;2061981;28;20112;-50
2023/06/29 03:53:44;;;;;;;3.42;2.55;;;;;;;28.20;43.80;98631.22;2060991;28;20534;-47
2023/06/29 03:54:48;;;;;;;3.22;2.22;;;;;;;28.18;43.91;98625.19;2062911;28;20058;-50
2023/06/29 03:55:49;;;;;;;3.35;2.65;;;;;;;28.16;43.81;98627.38;2063157;28;20058;-53
2023/06/29 03:56:51;;;;;;;2.70;2.50;;;;;;;28.17;43.57;98629.03;2061810;28;20050;-49
2023/06/29 03:57:54;;;;;;;4.05;2.90;;;;;;;28.16;44.07;98626.56;2064981;28;20054;-51
2023/06/29 03:58:56;;;;;;;4.18;2.30;;;;;;;28.16;43.74;98632.81;2066007;28;20057;-50
2023/06/29 03:59:58;;;;;;;4.15;3.13;;;;;;;28.18;43.77;98636.09;2063392;28;20068;-51
2023/06/29 04:01:01;;;;;;;3.13;2.78;;;;;;;28.16;43.86;98635.53;2058685;28;20054;-45
2023/06/29 04:02:02;;;;;;;4.38;2.50;;;;;;;28.14;43.98;98629.56;2056894;28;20050;-48
2023/06/29 04:03:05;;;;;;;3.50;2.33;;;;;;;28.14;43.84;98634.16;2063015;28;20117;-49
2023/06/29 04:04:06;;;;;;;2.83;2.22;;;;;;;28.14;43.42;98632.28;2061214;28;20053;-47
2023/06/29 04:05:09;;;;;;;3.30;2.42;;;;;;;28.17;43.94;98634.47;2061342;28;20046;-50
2023/06/29 04:06:11;;;;;;;2.70;2.13;;;;;;;28.15;44.13;98625.75;2061165;28;20443;-47
2023/06/29 04:07:13;;;;;;;3.38;2.10;;;;;;;28.15;43.97;98625.75;2062279;28;20042;-49
2023/06/29 04:08:14;;;;;;;2.55;2.25;;;;;;;28.17;44.04;98634.47;2057822;28;20090;-48
2023/06/29 04:09:16;;;;;;;2.78;2.38;;;;;;;28.15;44.00;98630.38;2060186;28;20112;-48
2023/06/29 04:10:16;;;;;;;3.95;2.63;;;;;;;28.15;43.86;98631.19;2060725;28;20070;-48
2023/06/29 04:11:18;;;;;;;2.90;2.28;;;;;;;28.12;44.79;98630.91;2063948;28;20633;-48
2023/06/29 04:12:19;;;;;;;4.10;2.53;;;;;;;28.15;43.59;98631.19;2060224;28;20049;-49
2023/06/29 04:13:21;;;;;;;3.13;2.28;;;;;;;28.14;43.73;98637.75;2062470;28;20046;-48
2023/06/29 04:14:22;;;;;;;3.05;2.22;;;;;;;28.14;44.27;98634.16;2062817;28;20050;-47
2023/06/29 04:15:25;;;;;;;2.67;2.03;;;;;;;28.16;43.58;98626.56;2064667;28;20053;-48
2023/06/29 04:16:26;;;;;;;3.30;2.20;;;;;;;28.16;43.80;98632.00;2059550;28;20057;-47
2023/06/29 04:17:28;;;;;;;3.15;2.05;;;;;;;28.18;43.91;98627.13;2061203;28;20061;-48
2023/06/29 04:18:29;;;;;;;4.10;3.65;;;;;;;28.15;43.69;98631.19;2056494;28;20088;-49
2023/06/29 04:19:30;;;;;;;4.22;1.90;;;;;;;28.15;43.57;98631.19;2064133;28;20679;-46
2023/06/29 04:20:32;;;;;;;4.13;2.70;;;;;;;28.14;43.71;98624.09;2062715;28;20137;-48
2023/06/29 04:21:35;;;;;;;3.22;2.20;;;;;;;28.16;43.79;98627.38;2061970;28;20057;-49
2023/06/29 04:22:36;;;;;;;3.47;2.40;;;;;;;28.15;43.47;98635.84;2063744;28;20045;-49
2023/06/29 04:23:38;;;;;;;3.15;2.03;;;;;;;28.14;43.51;98635.00;2063374;28;20127;-49
2023/06/29 04:24:38;;;;;;;2.58;2.10;;;;;;;28.14;43.52;98635.00;2061684;28;20857;-50
2023/06/29 04:25:42;;;;;;;3.80;2.25;;;;;;;28.12;43.65;98631.72;2061761;28;20042;-48
2023/06/29 04:26:43;;;;;;;2.78;1.98;;;;;;;28.13;43.71;98638.81;2060437;28;20053;-50
2023/06/29 04:27:44;;;;;;;2.70;2.20;;;;;;;28.15;43.60;98641.28;2063467;28;20049;-47
2023/06/29 04:28:46;;;;;;;4.22;2.20;;;;;;;28.14;43.53;98642.34;2063157;28;20045;-48
2023/06/29 04:29:48;;;;;;;4.22;2.72;;;;;;;28.14;43.51;98640.47;2063886;28;20145;-49
2023/06/29 04:30:50;;;;;;;4.38;2.00;;;;;;;28.12;43.33;98634.44;2064450;28;20678;-51
2023/06/29 04:31:54;;;;;;;3.50;2.85;;;;;;;28.14;43.09;98640.47;2064908;28;20385;-47
2023/06/29 04:32:59;;;;;;;2.47;2.28;;;;;;;28.13;43.39;98640.72;2062576;28;20050;-48
2023/06/29 04:34:02;;;;;;;3.38;2.53;;;;;;;28.13;43.33;98647.00;2062460;28;20108;-49
2023/06/29 04:35:04;;;;;;;6.80;2.45;;;;;;;28.14;43.05;98642.34;2058496;28;20057;-48
2023/06/29 04:36:05;;;;;;;2.97;2.40;;;;;;;28.13;43.05;98648.91;2064206;28;20140;-48
2023/06/29 04:37:07;;;;;;;3.97;2.33;;;;;;;28.11;42.74;98640.16;2062577;28;20053;-49
2023/06/29 04:38:10;;;;;;;2.88;2.38;;;;;;;28.11;43.42;98640.16;2062089;28;20523;-48
2023/06/29 04:39:11;;;;;;;2.65;2.10;;;;;;;28.10;43.40;98643.97;2062160;28;20139;-48
2023/06/29 04:40:14;;;;;;;4.13;1.70;;;;;;;28.09;43.27;98648.63;2061671;28;21308;-48
2023/06/29 04:41:15;;;;;;;4.50;2.50;;;;;;;28.10;43.13;98641.25;2061682;28;20137;-48
2023/06/29 04:42:16;;;;;;;4.18;2.30;;;;;;;28.09;43.17;98640.44;2062878;28;20050;-50
2023/06/29 04:43:17;;;;;;;3.03;1.95;;;;;;;28.10;43.17;98639.34;2063056;28;20043;-52
2023/06/29 04:44:21;;;;;;;2.33;2.13;;;;;;;28.10;42.89;98644.78;2064759;28;20953;-49
2023/06/29 04:45:24;;;;;;;5.13;2.13;;;;;;;28.10;43.09;98641.25;2061542;28;20153;-50
2023/06/29 04:46:29;;;;;;;1.90;1.70;;;;;;;28.10;42.90;98644.78;2063255;28;20078;-48
2023/06/29 04:47:32;;;;;;;2.13;1.92;;;;;;;28.08;42.91;98636.06;2062307;28;21967;-48
2023/06/29 04:48:37;;;;;;;2.92;2.30;;;;;;;28.08;42.76;98638.78;2064466;28;20153;-49
2023/06/29 04:49:39;;;;;;;3.95;2.10;;;;;;;28.09;42.94;98642.34;2064554;28;20049;-47
2023/06/29 04:50:41;;;;;;;3.42;2.17;;;;;;;28.10;43.31;98639.34;2058252;28;20050;-48
2023/06/29 04:51:42;;;;;;;4.22;1.77;;;;;;;28.07;43.12;98642.59;2062286;28;20057;-47
2023/06/29 04:52:43;;;;;;;2.75;1.75;;;;;;;28.07;42.76;98637.97;2062199;28;20573;-49